Time;durP1;ratioP1;P1;durP2;ratioP2;P2;SDS_P1;SDS_P2;PMS_P1;PMS_P2;Temp;Humidity;BMP_temperature;BMP_pressure;BME280_temperature;BME280_humidity;BME280_pressure;Samples;Min_cycle;Max_cycle;Signal;HPM_P1;HPM_P2
2022/06/25 00:01:57;;;;;;;3.67;2.70;;;;;;;14.23;83.27;97927.62;1829959;78;21887;-63
2022/06/25 00:07:10;;;;;;;3.33;2.50;;;;;;;14.20;83.74;97923.66;1830194;78;21436;-61
2022/06/25 00:09:36;;;;;;;4.47;2.77;;;;;;;14.22;83.79;97920.66;1829954;78;20879;-60
2022/06/25 00:14:49;;;;;;;2.85;2.27;;;;;;;14.18;83.56;97916.44;1829980;78;21904;-60
2022/06/25 00:17:16;;;;;;;3.25;2.50;;;;;;;14.13;83.73;97917.94;1829888;78;20899;-68
2022/06/25 00:19:42;;;;;;;5.53;2.35;;;;;;;14.12;83.92;97910.19;1830049;78;20963;-66
2022/06/25 00:22:08;;;;;;;4.37;2.52;;;;;;;14.11;84.06;97920.16;1830005;78;20921;-60
2022/06/25 00:24:35;;;;;;;5.53;2.70;;;;;;;14.12;84.06;97916.38;1829939;78;20950;-65
2022/06/25 00:27:01;;;;;;;4.03;2.42;;;;;;;14.12;84.07;97919.61;1830027;78;21099;-67
2022/06/25 00:29:28;;;;;;;4.10;2.67;;;;;;;14.11;84.16;97924.20;1829957;78;21347;-60
2022/06/25 00:31:55;;;;;;;3.77;2.37;;;;;;;14.09;84.25;97921.58;1829849;78;20999;-60
2022/06/25 00:34:21;;;;;;;4.53;2.85;;;;;;;14.09;84.46;97921.58;1829902;78;20981;-68
2022/06/25 00:36:48;;;;;;;3.02;2.72;;;;;;;14.11;84.62;97924.75;1830051;78;20894;-68
2022/06/25 00:39:14;;;;;;;2.80;2.60;;;;;;;14.13;84.64;97917.17;1829916;78;21161;-67
2022/06/25 00:41:41;;;;;;;3.20;2.70;;;;;;;14.14;84.62;97915.50;1829952;78;20946;-66
2022/06/25 00:44:08;;;;;;;7.60;2.50;;;;;;;14.12;84.38;97919.61;1829894;78;20882;-61
2022/06/25 00:46:35;;;;;;;2.90;2.58;;;;;;;14.04;84.27;97919.03;1830219;78;21397;-67
2022/06/25 00:49:02;;;;;;;3.95;2.40;;;;;;;13.98;84.18;97912.22;1829915;78;20969;-60
2022/06/25 00:51:33;;;;;;;2.75;2.35;;;;;;;13.92;84.05;97915.59;1830224;78;21933;-65
2022/06/25 00:54:04;;;;;;;3.42;2.52;;;;;;;13.79;84.24;97919.77;1830193;78;21413;-68
2022/06/25 00:56:35;;;;;;;4.95;2.30;;;;;;;13.73;84.43;97921.80;1830016;78;21267;-66
2022/06/25 00:59:05;;;;;;;3.30;2.35;;;;;;;13.70;84.52;97920.55;1809737;78;21587;-67
2022/06/25 01:01:34;;;;;;;3.95;2.80;;;;;;;13.67;84.53;97923.85;1829911;78;20926;-64
2022/06/25 01:04:01;;;;;;;3.42;2.40;;;;;;;13.61;84.78;97930.46;1830112;78;21803;-68
2022/06/25 01:06:28;;;;;;;4.40;2.60;;;;;;;13.57;84.94;97928.70;1829910;78;20847;-64
2022/06/25 01:08:57;;;;;;;5.40;2.58;;;;;;;13.56;85.13;97933.86;1829891;78;20953;-64
2022/06/25 01:11:25;;;;;;;3.40;2.37;;;;;;;13.56;85.22;97927.94;1830150;78;20867;-68
2022/06/25 01:13:53;;;;;;;4.85;2.95;;;;;;;13.55;85.22;97931.72;1829819;78;20961;-60
2022/06/25 01:16:22;;;;;;;6.67;2.65;;;;;;;13.52;85.40;97930.98;1829998;78;21185;-66
2022/06/25 01:18:50;;;;;;;4.83;2.70;;;;;;;13.56;85.50;97930.63;1830426;78;20827;-64
2022/06/25 01:21:16;;;;;;;6.72;2.87;;;;;;;13.53;85.53;97931.23;1830001;78;20971;-64
2022/06/25 01:23:43;;;;;;;3.72;2.40;;;;;;;13.53;85.78;97936.63;1830084;78;21459;-69
2022/06/25 01:26:09;;;;;;;3.37;2.52;;;;;;;13.54;85.90;97940.11;1830293;78;21412;-66
2022/06/25 01:28:36;;;;;;;4.15;2.70;;;;;;;13.56;86.15;97941.39;1829998;78;21144;-65
2022/06/25 01:31:02;;;;;;;4.47;2.87;;;;;;;13.60;86.30;97940.20;1829858;78;20907;-60
2022/06/25 01:33:30;;;;;;;2.92;2.45;;;;;;;13.62;86.38;97944.17;1830006;78;20890;-59
2022/06/25 01:35:57;;;;;;;4.95;2.58;;;;;;;13.65;86.39;97941.41;1829870;78;20914;-62
2022/06/25 01:38:26;;;;;;;4.28;2.62;;;;;;;13.68;86.40;97948.88;1829939;78;20867;-61
2022/06/25 01:40:53;;;;;;;4.95;2.67;;;;;;;13.69;86.37;97955.28;1829859;78;21142;-60
2022/06/25 01:43:20;;;;;;;3.62;2.72;;;;;;;13.71;86.51;97957.11;1829922;78;20851;-64
2022/06/25 01:45:47;;;;;;;2.87;2.50;;;;;;;13.73;86.66;97958.94;1829851;78;20875;-61
2022/06/25 01:48:14;;;;;;;3.00;2.65;;;;;;;13.75;86.61;97963.22;1830188;78;21488;-64
2022/06/25 01:50:40;;;;;;;2.92;2.62;;;;;;;13.75;86.59;97956.49;1829902;78;20871;-61
2022/06/25 01:53:07;;;;;;;6.03;2.90;;;;;;;13.73;86.43;97958.94;1829874;78;21229;-64
2022/06/25 01:55:34;;;;;;;5.58;2.60;;;;;;;13.71;86.54;97959.00;1829916;78;20867;-68
2022/06/25 01:58:01;;;;;;;3.25;2.60;;;;;;;13.69;86.56;97962.02;1829845;78;20898;-62
2022/06/25 02:00:29;;;;;;;5.47;2.77;;;;;;;13.69;86.67;97966.05;1829835;78;20851;-67
2022/06/25 02:02:58;;;;;;;3.35;2.50;;;;;;;13.70;86.84;97964.95;1829645;78;20871;-64
2022/06/25 02:05:59;;;;;;;5.40;2.95;;;;;;;13.71;87.03;97965.73;1830141;78;21957;-66
2022/06/25 02:08:02;;;;;;;4.70;2.62;;;;;;;13.73;86.88;97964.31;1813853;77;21527;-60
2022/06/25 02:10:29;;;;;;;4.53;2.80;;;;;;;13.65;86.53;97966.98;1827268;78;21345;-62
2022/06/25 02:12:55;;;;;;;2.77;2.55;;;;;;;13.57;86.42;97963.14;1827028;78;20883;-69
2022/06/25 02:15:22;;;;;;;3.92;2.45;;;;;;;13.50;86.41;97966.83;1827059;78;21001;-64
2022/06/25 02:17:48;;;;;;;3.65;2.60;;;;;;;13.47;86.50;97971.48;1827044;78;21857;-61
2022/06/25 02:20:16;;;;;;;3.87;2.83;;;;;;;13.44;86.41;97964.04;1826897;78;20903;-64
2022/06/25 02:22:42;;;;;;;5.05;2.60;;;;;;;13.42;86.39;97966.25;1826948;78;20996;-59
2022/06/25 02:25:09;;;;;;;6.53;2.83;;;;;;;13.36;86.46;97963.43;1827027;78;20995;-62
2022/06/25 02:27:35;;;;;;;2.87;2.65;;;;;;;13.33;86.63;97961.35;1826972;78;20965;-69
2022/06/25 02:30:02;;;;;;;4.15;2.67;;;;;;;13.30;86.65;97961.98;1827054;78;21202;-66
2022/06/25 02:32:31;;;;;;;5.42;2.65;;;;;;;13.27;86.67;97962.59;1828035;78;20963;-66
2022/06/25 02:34:58;;;;;;;6.97;2.77;;;;;;;13.22;86.79;97958.69;1829859;78;20939;-59
2022/06/25 02:37:25;;;;;;;3.17;2.87;;;;;;;13.18;86.94;97959.06;1830101;78;21484;-65
2022/06/25 02:39:51;;;;;;;6.33;2.90;;;;;;;13.19;87.03;97960.63;1830034;78;20909;-60
2022/06/25 02:42:18;;;;;;;6.80;2.85;;;;;;;13.18;87.03;97956.38;1830017;78;21095;-60
2022/06/25 02:44:45;;;;;;;4.60;3.00;;;;;;;13.17;87.00;97957.47;1830020;78;20990;-67
2022/06/25 02:47:11;;;;;;;3.98;2.35;;;;;;;13.15;87.01;97962.36;1830006;78;20870;-60
2022/06/25 02:49:45;;;;;;;6.03;2.77;;;;;;;13.12;87.06;97961.62;1827701;78;20922;-60
2022/06/25 02:52:11;;;;;;;2.87;2.60;;;;;;;13.13;87.32;97959.19;1830122;78;20957;-62
2022/06/25 02:54:38;;;;;;;3.55;2.67;;;;;;;13.18;87.45;97961.75;1829990;78;22088;-68
2022/06/25 02:59:50;;;;;;;4.55;3.10;;;;;;;13.24;87.75;97960.52;1830283;78;20851;-67
2022/06/25 03:02:17;;;;;;;5.95;2.75;;;;;;;13.30;87.79;97953.12;1809422;78;21429;-64
2022/06/25 03:04:44;;;;;;;7.70;2.55;;;;;;;13.32;87.94;97954.41;1829998;78;20973;-63
2022/06/25 03:07:13;;;;;;;5.83;2.80;;;;;;;13.37;88.14;97956.96;1829985;78;20977;-68
2022/06/25 03:09:40;;;;;;;3.25;2.95;;;;;;;13.42;88.20;97954.14;1829936;78;20859;-63
2022/06/25 03:12:08;;;;;;;4.12;2.90;;;;;;;13.45;88.31;97953.50;1830327;78;21401;-68
2022/06/25 03:14:35;;;;;;;3.70;2.67;;;;;;;13.48;88.39;97960.97;1829981;78;20871;-63
2022/06/25 03:17:03;;;;;;;3.70;2.60;;;;;;;13.52;88.35;97953.86;1830015;78;20950;-66
2022/06/25 03:19:31;;;;;;;5.65;2.90;;;;;;;13.52;88.57;97957.89;1827871;78;21027;-59
2022/06/25 03:22:00;;;;;;;5.87;2.87;;;;;;;13.60;88.62;97961.73;1828840;78;20859;-68
2022/06/25 03:24:27;;;;;;;4.33;2.92;;;;;;;13.68;88.63;97955.60;1829997;78;20863;-66
2022/06/25 03:26:53;;;;;;;5.53;2.92;;;;;;;13.78;88.54;97961.27;1830216;78;20915;-64
2022/06/25 03:29:20;;;;;;;12.90;3.00;;;;;;;13.85;88.61;97957.57;1830117;78;20870;-68
2022/06/25 03:31:48;;;;;;;6.62;2.98;;;;;;;13.94;88.66;97954.34;1828949;78;21038;-68
2022/06/25 03:34:23;;;;;;;12.58;2.80;;;;;;;14.07;88.94;97954.77;1774297;78;20890;-67
2022/06/25 03:36:50;;;;;;;5.60;3.00;;;;;;;14.20;89.09;97953.28;1810399;78;20862;-63
2022/06/25 03:39:17;;;;;;;4.53;2.87;;;;;;;14.31;88.90;97954.62;1810571;79;20961;-66
2022/06/25 03:41:44;;;;;;;7.47;3.00;;;;;;;14.42;88.63;97960.48;1810412;79;20914;-63
2022/06/25 03:44:18;;;;;;;4.03;2.43;;;;;;;14.51;88.33;97963.98;1780552;78;21219;-60
2022/06/25 03:46:45;;;;;;;3.50;2.90;;;;;;;14.60;87.79;97970.16;1810285;79;20949;-68
2022/06/25 03:49:11;;;;;;;4.60;2.50;;;;;;;14.69;87.49;97964.25;1810475;79;20867;-66
2022/06/25 03:51:46;;;;;;;9.80;3.30;;;;;;;14.81;87.05;97965.76;1798236;79;20946;-66
2022/06/25 03:54:12;;;;;;;2.98;2.67;;;;;;;14.99;86.48;97971.37;1810419;78;20962;-62
2022/06/25 03:56:39;;;;;;;6.62;2.90;;;;;;;15.16;86.02;97963.02;1810431;79;21019;-63
2022/06/25 03:59:06;;;;;;;4.58;3.08;;;;;;;15.33;85.22;97971.08;1810408;79;21488;-68
2022/06/25 04:01:33;;;;;;;6.05;3.15;;;;;;;15.50;84.41;97969.69;1810358;79;20937;-67
2022/06/25 04:04:00;;;;;;;8.05;2.85;;;;;;;15.68;83.44;97972.59;1810468;78;20891;-60
2022/06/25 04:06:27;;;;;;;5.58;2.85;;;;;;;15.83;82.28;97966.64;1810570;79;21370;-66
2022/06/25 04:08:58;;;;;;;5.25;3.10;;;;;;;15.99;81.21;97971.72;1810263;78;21093;-63
2022/06/25 04:11:25;;;;;;;6.17;3.20;;;;;;;16.16;80.25;97967.59;1810279;79;20962;-65
2022/06/25 04:13:55;;;;;;;5.03;2.72;;;;;;;16.30;79.52;97968.14;1810400;78;20891;-69
2022/06/25 04:16:23;;;;;;;6.50;2.80;;;;;;;16.41;79.01;97969.36;1810513;79;21440;-67
2022/06/25 04:18:50;;;;;;;3.33;2.65;;;;;;;16.52;78.22;97969.78;1810565;79;20819;-68
2022/06/25 04:21:18;;;;;;;5.00;3.30;;;;;;;16.64;77.78;97969.86;1810542;79;21335;-65
2022/06/25 04:23:45;;;;;;;4.97;2.98;;;;;;;16.76;77.42;97970.48;1810629;78;21499;-68
2022/06/25 04:26:13;;;;;;;6.62;2.85;;;;;;;16.84;77.00;97969.63;1810694;79;20957;-67
2022/06/25 04:31:36;;;;;;;5.33;2.80;;;;;;;16.98;75.46;97968.80;1773936;78;21045;-69
2022/06/25 04:34:04;;;;;;;6.10;3.10;;;;;;;17.07;74.99;97973.56;1827360;78;21753;-63
2022/06/25 04:36:32;;;;;;;6.28;2.67;;;;;;;17.14;74.62;97969.76;1829831;78;20985;-63
2022/06/25 04:39:04;;;;;;;5.20;2.52;;;;;;;17.20;74.25;97973.03;1828933;78;21434;-59
2022/06/25 04:41:31;;;;;;;3.70;2.67;;;;;;;17.28;73.93;97979.73;1830009;78;20918;-68
2022/06/25 04:44:01;;;;;;;5.33;2.50;;;;;;;17.35;73.67;97975.91;1829959;78;20867;-67
2022/06/25 04:46:31;;;;;;;6.80;2.50;;;;;;;17.46;73.22;97978.42;1829957;78;21337;-66
2022/06/25 04:48:58;;;;;;;6.90;2.40;;;;;;;17.56;72.49;97981.30;1829939;78;21398;-65
2022/06/25 04:51:27;;;;;;;5.05;2.50;;;;;;;17.67;71.84;97980.52;1827273;78;20902;-61
2022/06/25 04:53:57;;;;;;;11.60;2.87;;;;;;;17.76;71.22;97984.48;1829883;78;20910;-68
2022/06/25 04:56:28;;;;;;;7.67;2.67;;;;;;;17.87;70.00;97987.55;1829221;78;20910;-60
2022/06/25 04:58:57;;;;;;;5.90;2.77;;;;;;;17.97;69.64;97987.88;1809138;78;21227;-64
2022/06/25 05:01:38;;;;;;;4.87;2.77;;;;;;;18.06;69.35;97986.44;1829916;78;21370;-63
2022/06/25 05:04:04;;;;;;;5.60;2.40;;;;;;;18.14;68.72;97986.88;1829910;78;20971;-59
2022/06/25 05:06:31;;;;;;;9.10;2.90;;;;;;;18.20;68.26;97989.04;1829985;78;20930;-60
2022/06/25 05:08:58;;;;;;;3.37;2.60;;;;;;;18.29;68.33;97992.98;1829916;78;20827;-61
2022/06/25 05:11:25;;;;;;;6.12;2.77;;;;;;;18.34;68.11;97995.47;1829968;78;22001;-62
2022/06/25 05:13:52;;;;;;;4.72;2.62;;;;;;;18.42;68.20;97994.54;1829929;78;20835;-67
2022/06/25 05:16:18;;;;;;;6.97;2.90;;;;;;;18.50;68.09;97989.60;1830219;78;21358;-69
2022/06/25 05:18:51;;;;;;;5.67;2.90;;;;;;;18.58;67.64;97995.48;1830018;78;20886;-62
2022/06/25 05:21:18;;;;;;;6.97;2.60;;;;;;;18.63;66.84;97993.86;1830124;78;37062;-61
2022/06/25 05:23:45;;;;;;;6.25;2.60;;;;;;;18.69;66.20;98002.00;1829895;78;21096;-60
2022/06/25 05:26:12;;;;;;;6.22;2.45;;;;;;;18.76;66.03;98002.21;1829804;78;20950;-62
2022/06/25 05:28:38;;;;;;;6.30;2.70;;;;;;;18.83;65.70;97997.00;1830087;78;21373;-66
2022/06/25 05:31:05;;;;;;;3.85;2.33;;;;;;;18.92;65.29;97999.00;1829974;78;20891;-62
2022/06/25 05:33:33;;;;;;;6.75;2.55;;;;;;;19.00;65.22;97998.64;1829676;78;21047;-67
2022/06/25 05:36:00;;;;;;;4.08;2.40;;;;;;;19.06;64.89;97998.05;1827014;78;21104;-60
2022/06/25 05:38:26;;;;;;;6.55;2.40;;;;;;;19.14;65.02;97997.69;1826905;78;20958;-64
2022/06/25 05:40:54;;;;;;;3.83;2.15;;;;;;;19.19;64.16;97995.29;1827176;78;21022;-70
2022/06/25 05:43:20;;;;;;;2.87;2.30;;;;;;;19.27;63.61;98003.84;1826951;78;20910;-66
2022/06/25 05:45:48;;;;;;;4.75;2.20;;;;;;;19.33;63.37;97998.39;1827072;78;20839;-66
2022/06/25 05:48:15;;;;;;;5.60;2.20;;;;;;;19.40;63.54;97995.34;1826950;78;21218;-61
2022/06/25 05:50:41;;;;;;;4.50;2.25;;;;;;;19.49;63.65;97997.33;1827009;78;20883;-65
2022/06/25 05:53:07;;;;;;;4.00;2.30;;;;;;;19.60;64.01;98000.31;1826967;78;20894;-63
2022/06/25 05:55:35;;;;;;;4.40;2.55;;;;;;;19.72;64.09;97992.09;1826949;78;20911;-59
2022/06/25 05:58:01;;;;;;;3.95;2.30;;;;;;;19.83;63.56;97997.25;1827090;78;20904;-64
2022/06/25 06:00:28;;;;;;;4.10;2.08;;;;;;;19.92;62.74;98001.94;1826953;78;21867;-64
2022/06/25 06:02:54;;;;;;;2.83;2.35;;;;;;;20.00;62.60;97999.59;1826902;78;20919;-67
2022/06/25 06:05:21;;;;;;;3.77;2.05;;;;;;;20.07;62.34;98003.84;1827237;78;20831;-67
2022/06/25 06:07:47;;;;;;;4.65;2.02;;;;;;;20.13;62.16;98006.54;1827237;78;21390;-68
2022/06/25 06:10:14;;;;;;;4.10;2.20;;;;;;;20.23;61.94;98014.77;1827478;78;21512;-66
2022/06/25 06:12:41;;;;;;;5.05;2.00;;;;;;;20.30;61.63;98015.70;1827102;78;21090;-68
2022/06/25 06:15:09;;;;;;;1.80;1.65;;;;;;;20.39;61.69;98010.89;1827153;78;20898;-66
2022/06/25 06:17:37;;;;;;;4.50;1.92;;;;;;;20.52;61.67;98010.75;1827099;78;21442;-68
2022/06/25 06:20:05;;;;;;;5.28;2.10;;;;;;;20.64;61.00;98014.72;1827456;78;20994;-64
2022/06/25 06:22:32;;;;;;;4.22;2.10;;;;;;;20.74;60.47;98016.34;1827139;78;21571;-68
2022/06/25 06:24:59;;;;;;;5.70;2.20;;;;;;;20.83;60.75;98018.28;1827312;78;21717;-66
2022/06/25 06:27:25;;;;;;;4.15;2.08;;;;;;;20.91;60.33;98009.70;1827125;78;20965;-60
2022/06/25 06:29:51;;;;;;;2.02;1.70;;;;;;;21.01;60.64;98013.20;1827121;78;20859;-65
2022/06/25 06:32:24;;;;;;;6.00;1.98;;;;;;;21.08;59.45;98007.92;1827374;78;20959;-66
2022/06/25 06:34:50;;;;;;;5.75;2.12;;;;;;;21.17;58.24;98012.61;1827149;78;21444;-68
2022/06/25 06:37:17;;;;;;;2.87;1.60;;;;;;;21.27;58.16;98009.30;1827091;78;21116;-66
2022/06/25 06:39:43;;;;;;;2.85;1.85;;;;;;;21.36;57.27;98007.13;1827040;78;20922;-63
2022/06/25 06:42:10;;;;;;;4.03;1.80;;;;;;;21.48;56.40;98013.02;1827100;78;20891;-60
2022/06/25 06:44:38;;;;;;;5.37;1.92;;;;;;;21.59;55.99;98003.90;1827305;78;20922;-61
2022/06/25 06:47:05;;;;;;;3.70;1.60;;;;;;;21.72;55.86;98003.14;1827100;78;20919;-62
2022/06/25 06:49:32;;;;;;;3.37;1.90;;;;;;;21.83;54.92;98000.05;1827097;78;21999;-68
2022/06/25 06:51:58;;;;;;;4.72;2.05;;;;;;;21.93;54.51;97997.31;1827023;78;20839;-64
2022/06/25 06:54:25;;;;;;;3.33;1.90;;;;;;;22.02;54.25;98006.04;1827094;78;20941;-61
2022/06/25 06:56:53;;;;;;;4.47;1.80;;;;;;;22.09;54.76;98000.09;1827175;78;21357;-62
2022/06/25 06:59:19;;;;;;;2.33;1.70;;;;;;;22.17;54.95;97997.71;1827126;78;20875;-68
2022/06/25 07:01:46;;;;;;;2.80;1.67;;;;;;;22.24;53.14;97999.76;1827276;78;21670;-67
2022/06/25 07:04:12;;;;;;;3.72;1.67;;;;;;;22.32;53.73;98005.55;1827014;78;20926;-64
2022/06/25 07:06:39;;;;;;;3.65;1.55;;;;;;;22.40;53.44;98005.85;1827060;78;20894;-62
2022/06/25 07:09:05;;;;;;;2.12;1.40;;;;;;;22.50;52.24;98006.59;1827481;78;21504;-68
2022/06/25 07:11:32;;;;;;;3.67;1.65;;;;;;;22.59;51.14;98005.75;1827098;78;20926;-61
2022/06/25 07:14:06;;;;;;;5.08;1.70;;;;;;;22.68;50.20;98008.27;1827511;78;21369;-65
2022/06/25 07:16:34;;;;;;;4.05;1.70;;;;;;;22.77;49.91;98006.84;1827167;78;21567;-60
2022/06/25 07:19:01;;;;;;;5.33;1.65;;;;;;;22.83;48.97;98010.02;1827089;78;20902;-67
2022/06/25 07:21:28;;;;;;;4.10;1.60;;;;;;;22.90;50.34;98016.94;1827058;78;20852;-65
2022/06/25 07:23:55;;;;;;;2.87;1.55;;;;;;;22.95;50.56;98011.95;1827076;78;21508;-65
2022/06/25 07:26:21;;;;;;;5.00;1.90;;;;;;;22.99;51.11;98022.34;1827057;78;21162;-68
2022/06/25 07:28:48;;;;;;;3.12;1.70;;;;;;;23.09;51.93;98022.27;1827113;78;20871;-68
2022/06/25 07:31:14;;;;;;;2.92;1.87;;;;;;;23.18;52.48;98019.24;1827186;78;21030;-60
2022/06/25 07:33:41;;;;;;;3.70;1.80;;;;;;;23.28;52.89;98024.06;1827468;78;21373;-62
2022/06/25 07:36:07;;;;;;;4.12;1.95;;;;;;;23.34;49.33;98028.05;1829321;78;20894;-67
2022/06/25 07:38:34;;;;;;;5.37;1.62;;;;;;;23.42;48.13;98025.63;1829963;78;21956;-69
2022/06/25 07:41:02;;;;;;;5.17;2.50;;;;;;;23.48;47.78;98021.41;1830014;78;20898;-64
2022/06/25 07:43:29;;;;;;;4.75;1.47;;;;;;;23.52;47.94;98020.86;1829963;78;20861;-64
2022/06/25 07:45:55;;;;;;;2.35;1.70;;;;;;;23.55;48.59;98021.49;1829996;78;20926;-65
2022/06/25 07:48:22;;;;;;;3.85;1.60;;;;;;;23.58;47.34;98019.35;1830072;78;20962;-62
2022/06/25 07:53:34;;;;;;;3.30;1.30;;;;;;;23.72;46.19;98024.97;1830014;78;20918;-67
2022/06/25 07:56:00;;;;;;;4.90;1.70;;;;;;;23.83;46.88;98027.25;1829937;78;20855;-64
2022/06/25 07:58:28;;;;;;;5.90;1.90;;;;;;;23.92;46.64;98029.09;1830322;78;20950;-62
2022/06/25 08:00:54;;;;;;;5.17;1.85;;;;;;;23.96;45.46;98018.97;1829956;78;20891;-62
2022/06/25 08:03:21;;;;;;;3.00;1.55;;;;;;;24.01;46.51;98018.63;1830251;78;21859;-69
2022/06/25 08:05:48;;;;;;;3.40;1.70;;;;;;;24.09;47.35;98024.41;1829947;78;20827;-60
2022/06/25 08:08:14;;;;;;;12.13;2.00;;;;;;;24.14;46.77;98015.83;1830021;78;20875;-60
2022/06/25 08:10:42;;;;;;;2.42;1.57;;;;;;;24.20;47.67;98017.06;1829973;78;20926;-65
2022/06/25 08:13:09;;;;;;;5.80;1.62;;;;;;;24.26;46.58;98022.38;1829950;78;20918;-70
2022/06/25 08:15:36;;;;;;;3.22;1.42;;;;;;;24.30;45.10;98027.31;1829903;78;21145;-69
2022/06/25 08:18:02;;;;;;;4.67;1.37;;;;;;;24.41;43.70;98021.91;1829863;78;21334;-69
2022/06/25 08:20:29;;;;;;;1.67;1.22;;;;;;;24.43;42.55;98025.84;1829908;78;20906;-68
2022/06/25 08:22:56;;;;;;;5.30;1.60;;;;;;;24.46;41.66;98025.09;1829993;78;20923;-61
2022/06/25 08:25:22;;;;;;;4.03;1.57;;;;;;;24.51;43.64;98031.37;1830239;78;21598;-64
2022/06/25 08:27:50;;;;;;;4.62;1.90;;;;;;;24.55;42.75;98028.86;1830473;78;21245;-68
2022/06/25 08:30:20;;;;;;;2.60;1.67;;;;;;;24.59;42.67;98030.27;1829836;78;20910;-62
2022/06/25 08:32:46;;;;;;;7.50;1.67;;;;;;;24.63;43.09;98020.11;1829515;77;20922;-64
2022/06/25 08:35:13;;;;;;;3.52;1.52;;;;;;;24.68;43.21;98036.19;1829175;78;20922;-69
2022/06/25 08:37:42;;;;;;;2.67;1.60;;;;;;;24.71;42.75;98032.67;1827075;78;20878;-64
2022/06/25 08:40:09;;;;;;;3.42;1.60;;;;;;;24.79;42.45;98028.84;1827175;78;21111;-61
2022/06/25 08:42:37;;;;;;;4.15;1.50;;;;;;;24.85;42.55;98035.52;1826931;78;20875;-68
2022/06/25 08:45:04;;;;;;;1.98;1.50;;;;;;;24.90;41.13;98037.91;1827095;78;21045;-64
2022/06/25 08:47:31;;;;;;;7.97;1.42;;;;;;;24.90;38.95;98042.02;1826967;78;20910;-61
2022/06/25 08:49:58;;;;;;;2.87;1.55;;;;;;;24.92;40.18;98038.30;1827116;78;20906;-60
2022/06/25 08:52:28;;;;;;;2.77;1.40;;;;;;;24.99;41.77;98035.63;1827105;78;21852;-64
2022/06/25 08:54:55;;;;;;;2.75;1.40;;;;;;;25.04;41.40;98035.24;1827030;78;21480;-62
2022/06/25 08:57:22;;;;;;;2.92;1.20;;;;;;;24.95;39.54;98031.48;1826984;78;20832;-60
2022/06/25 08:59:48;;;;;;;3.55;1.50;;;;;;;24.82;39.11;98033.57;1827043;78;20918;-60
2022/06/25 09:02:15;;;;;;;4.53;1.20;;;;;;;24.86;39.19;98043.38;1827396;78;21401;-67
2022/06/25 09:04:43;;;;;;;2.42;1.05;;;;;;;24.86;39.19;98043.38;1827170;78;21853;-69
2022/06/25 09:07:17;;;;;;;6.47;1.70;;;;;;;25.02;38.85;98039.75;1826879;78;20891;-68
2022/06/25 09:09:50;;;;;;;3.47;1.70;;;;;;;25.16;39.16;98037.66;1827152;78;20875;-68
2022/06/25 09:12:18;;;;;;;1.95;1.60;;;;;;;25.30;40.48;98032.81;1827232;78;20871;-70
2022/06/25 09:14:44;;;;;;;4.08;1.82;;;;;;;25.41;42.18;98041.30;1827030;78;20907;-66
2022/06/25 09:17:14;;;;;;;4.25;1.60;;;;;;;25.50;41.46;98034.11;1826951;78;21115;-68
2022/06/25 09:19:48;;;;;;;3.87;1.67;;;;;;;25.58;40.93;98036.48;1826880;78;21441;-63
2022/06/25 09:22:18;;;;;;;5.08;1.98;;;;;;;25.62;40.15;98031.02;1827102;78;20899;-70
2022/06/25 09:24:48;;;;;;;2.22;1.55;;;;;;;25.66;40.88;98036.70;1826905;78;20957;-63
2022/06/25 09:27:22;;;;;;;1.82;1.55;;;;;;;25.72;40.24;98041.20;1827036;78;20966;-68
